sensor_id;sensor_type;location;lat;lon;timestamp;P1;durP1;ratioP1;P2;durP2;ratioP2
21705;SDS011;11014;53.076;18.208;2022-07-09T00:01:09;3.05;;;1.30;;
21705;SDS011;11014;53.076;18.208;2022-07-09T00:03:37;1.92;;;1.20;;
21705;SDS011;11014;53.076;18.208;2022-07-09T00:06:06;1.70;;;1.20;;
21705;SDS011;11014;53.076;18.208;2022-07-09T00:08:34;1.77;;;0.80;;
21705;SDS011;11014;53.076;18.208;2022-07-09T00:11:04;2.28;;;1.35;;
21705;SDS011;11014;53.076;18.208;2022-07-09T00:13:32;2.63;;;1.20;;
21705;SDS011;11014;53.076;18.208;2022-07-09T00:16:00;2.45;;;1.00;;
21705;SDS011;11014;53.076;18.208;2022-07-09T00:18:29;2.10;;;1.30;;
21705;SDS011;11014;53.076;18.208;2022-07-09T00:20:58;2.25;;;1.10;;
21705;SDS011;11014;53.076;18.208;2022-07-09T00:23:26;1.20;;;1.10;;
21705;SDS011;11014;53.076;18.208;2022-07-09T00:25:54;1.17;;;1.02;;
21705;SDS011;11014;53.076;18.208;2022-07-09T00:28:23;1.20;;;1.10;;
21705;SDS011;11014;53.076;18.208;2022-07-09T00:30:51;1.77;;;1.15;;
21705;SDS011;11014;53.076;18.208;2022-07-09T00:33:20;1.73;;;1.20;;
21705;SDS011;11014;53.076;18.208;2022-07-09T00:35:48;1.13;;;1.02;;
21705;SDS011;11014;53.076;18.208;2022-07-09T00:38:17;1.83;;;1.25;;
21705;SDS011;11014;53.076;18.208;2022-07-09T00:40:45;1.30;;;1.02;;
21705;SDS011;11014;53.076;18.208;2022-07-09T00:43:17;2.28;;;1.00;;
21705;SDS011;11014;53.076;18.208;2022-07-09T00:45:46;0.95;;;0.90;;
21705;SDS011;11014;53.076;18.208;2022-07-09T00:48:15;2.45;;;1.30;;
21705;SDS011;11014;53.076;18.208;2022-07-09T00:50:44;1.27;;;1.10;;
21705;SDS011;11014;53.076;18.208;2022-07-09T00:53:13;1.30;;;1.10;;
21705;SDS011;11014;53.076;18.208;2022-07-09T00:55:43;1.83;;;1.13;;
21705;SDS011;11014;53.076;18.208;2022-07-09T00:58:15;2.13;;;1.20;;
21705;SDS011;11014;53.076;18.208;2022-07-09T01:03:13;1.67;;;1.08;;
21705;SDS011;11014;53.076;18.208;2022-07-09T01:05:42;2.10;;;1.10;;
21705;SDS011;11014;53.076;18.208;2022-07-09T01:08:10;1.55;;;1.17;;
21705;SDS011;11014;53.076;18.208;2022-07-09T01:10:39;1.30;;;1.20;;
21705;SDS011;11014;53.076;18.208;2022-07-09T01:13:08;2.35;;;1.00;;
21705;SDS011;11014;53.076;18.208;2022-07-09T01:15:36;1.30;;;0.93;;
21705;SDS011;11014;53.076;18.208;2022-07-09T01:18:09;1.20;;;1.00;;
21705;SDS011;11014;53.076;18.208;2022-07-09T01:20:38;1.83;;;1.05;;
21705;SDS011;11014;53.076;18.208;2022-07-09T01:23:06;2.00;;;1.20;;
21705;SDS011;11014;53.076;18.208;2022-07-09T01:25:39;1.65;;;1.23;;
21705;SDS011;11014;53.076;18.208;2022-07-09T01:28:09;1.33;;;1.08;;
21705;SDS011;11014;53.076;18.208;2022-07-09T01:30:39;2.20;;;1.30;;
21705;SDS011;11014;53.076;18.208;2022-07-09T01:33:08;1.13;;;1.00;;
21705;SDS011;11014;53.076;18.208;2022-07-09T01:35:37;1.60;;;1.20;;
21705;SDS011;11014;53.076;18.208;2022-07-09T01:38:05;1.33;;;1.02;;
21705;SDS011;11014;53.076;18.208;2022-07-09T01:40:34;2.00;;;1.20;;
21705;SDS011;11014;53.076;18.208;2022-07-09T01:43:02;1.35;;;1.10;;
21705;SDS011;11014;53.076;18.208;2022-07-09T01:45:30;2.65;;;1.30;;
21705;SDS011;11014;53.076;18.208;2022-07-09T01:47:59;1.25;;;1.15;;
21705;SDS011;11014;53.076;18.208;2022-07-09T01:50:27;1.75;;;0.93;;
21705;SDS011;11014;53.076;18.208;2022-07-09T01:52:55;3.30;;;1.35;;
21705;SDS011;11014;53.076;18.208;2022-07-09T01:55:23;1.20;;;1.10;;
21705;SDS011;11014;53.076;18.208;2022-07-09T01:57:52;1.95;;;1.10;;
21705;SDS011;11014;53.076;18.208;2022-07-09T02:00:20;1.20;;;1.10;;
21705;SDS011;11014;53.076;18.208;2022-07-09T02:02:49;1.60;;;1.25;;
21705;SDS011;11014;53.076;18.208;2022-07-09T02:05:18;1.20;;;1.10;;
21705;SDS011;11014;53.076;18.208;2022-07-09T02:07:46;1.50;;;1.10;;
21705;SDS011;11014;53.076;18.208;2022-07-09T02:10:14;2.88;;;1.35;;
21705;SDS011;11014;53.076;18.208;2022-07-09T02:12:44;1.42;;;1.27;;
21705;SDS011;11014;53.076;18.208;2022-07-09T02:15:12;1.38;;;1.27;;
21705;SDS011;11014;53.076;18.208;2022-07-09T02:17:40;2.22;;;1.30;;
21705;SDS011;11014;53.076;18.208;2022-07-09T02:20:09;2.63;;;1.20;;
21705;SDS011;11014;53.076;18.208;2022-07-09T02:22:39;1.75;;;1.30;;
21705;SDS011;11014;53.076;18.208;2022-07-09T02:25:08;1.30;;;1.15;;
21705;SDS011;11014;53.076;18.208;2022-07-09T02:27:37;1.67;;;1.40;;
21705;SDS011;11014;53.076;18.208;2022-07-09T02:30:05;1.33;;;1.20;;
21705;SDS011;11014;53.076;18.208;2022-07-09T02:32:34;2.53;;;1.10;;
21705;SDS011;11014;53.076;18.208;2022-07-09T02:35:05;1.65;;;1.30;;
21705;SDS011;11014;53.076;18.208;2022-07-09T02:37:33;1.70;;;1.30;;
21705;SDS011;11014;53.076;18.208;2022-07-09T02:40:02;1.92;;;1.30;;
21705;SDS011;11014;53.076;18.208;2022-07-09T02:42:31;1.42;;;1.33;;
21705;SDS011;11014;53.076;18.208;2022-07-09T02:44:59;1.40;;;1.10;;
21705;SDS011;11014;53.076;18.208;2022-07-09T02:47:27;1.98;;;1.33;;
21705;SDS011;11014;53.076;18.208;2022-07-09T02:49:56;2.40;;;1.20;;
21705;SDS011;11014;53.076;18.208;2022-07-09T02:52:24;1.80;;;1.30;;
21705;SDS011;11014;53.076;18.208;2022-07-09T02:54:53;1.40;;;1.30;;
21705;SDS011;11014;53.076;18.208;2022-07-09T02:57:22;1.67;;;1.30;;
21705;SDS011;11014;53.076;18.208;2022-07-09T02:59:50;2.08;;;1.30;;
21705;SDS011;11014;53.076;18.208;2022-07-09T03:02:18;1.38;;;1.13;;
21705;SDS011;11014;53.076;18.208;2022-07-09T03:04:46;1.92;;;1.30;;
21705;SDS011;11014;53.076;18.208;2022-07-09T03:07:15;1.88;;;1.40;;
21705;SDS011;11014;53.076;18.208;2022-07-09T03:09:43;1.50;;;1.40;;
21705;SDS011;11014;53.076;18.208;2022-07-09T03:12:12;1.85;;;1.20;;
21705;SDS011;11014;53.076;18.208;2022-07-09T03:14:40;2.47;;;1.50;;
21705;SDS011;11014;53.076;18.208;2022-07-09T03:17:08;2.72;;;1.55;;
21705;SDS011;11014;53.076;18.208;2022-07-09T03:19:36;2.20;;;1.40;;
21705;SDS011;11014;53.076;18.208;2022-07-09T03:22:05;1.30;;;1.20;;
21705;SDS011;11014;53.076;18.208;2022-07-09T03:24:33;1.63;;;1.40;;
21705;SDS011;11014;53.076;18.208;2022-07-09T03:27:01;2.45;;;1.40;;
21705;SDS011;11014;53.076;18.208;2022-07-09T03:29:30;2.22;;;1.35;;
21705;SDS011;11014;53.076;18.208;2022-07-09T03:31:58;1.65;;;1.33;;
21705;SDS011;11014;53.076;18.208;2022-07-09T03:34:26;1.50;;;1.40;;
21705;SDS011;11014;53.076;18.208;2022-07-09T03:36:55;2.05;;;1.40;;
21705;SDS011;11014;53.076;18.208;2022-07-09T03:39:23;1.98;;;1.60;;
21705;SDS011;11014;53.076;18.208;2022-07-09T03:41:51;1.85;;;1.40;;
21705;SDS011;11014;53.076;18.208;2022-07-09T03:44:20;1.23;;;1.13;;
21705;SDS011;11014;53.076;18.208;2022-07-09T03:46:48;2.55;;;1.48;;
21705;SDS011;11014;53.076;18.208;2022-07-09T03:49:16;1.92;;;1.40;;
21705;SDS011;11014;53.076;18.208;2022-07-09T03:51:45;1.40;;;1.30;;
21705;SDS011;11014;53.076;18.208;2022-07-09T03:54:34;1.85;;;1.30;;
21705;SDS011;11014;53.076;18.208;2022-07-09T03:57:02;1.95;;;1.63;;
21705;SDS011;11014;53.076;18.208;2022-07-09T03:59:30;1.73;;;1.30;;
21705;SDS011;11014;53.076;18.208;2022-07-09T04:01:59;1.58;;;1.48;;
21705;SDS011;11014;53.076;18.208;2022-07-09T04:04:27;1.58;;;1.45;;
21705;SDS011;11014;53.076;18.208;2022-07-09T04:06:56;2.08;;;1.60;;
21705;SDS011;11014;53.076;18.208;2022-07-09T04:09:24;1.95;;;1.65;;
21705;SDS011;11014;53.076;18.208;2022-07-09T04:11:53;2.08;;;1.40;;
21705;SDS011;11014;53.076;18.208;2022-07-09T04:14:21;1.55;;;1.45;;
21705;SDS011;11014;53.076;18.208;2022-07-09T04:16:49;3.45;;;1.70;;
21705;SDS011;11014;53.076;18.208;2022-07-09T04:19:18;2.08;;;1.60;;
21705;SDS011;11014;53.076;18.208;2022-07-09T04:21:46;1.90;;;1.70;;
21705;SDS011;11014;53.076;18.208;2022-07-09T04:24:14;2.17;;;1.70;;
21705;SDS011;11014;53.076;18.208;2022-07-09T04:26:43;2.75;;;1.75;;
21705;SDS011;11014;53.076;18.208;2022-07-09T04:29:12;2.13;;;1.77;;
21705;SDS011;11014;53.076;18.208;2022-07-09T04:31:40;3.42;;;1.77;;
21705;SDS011;11014;53.076;18.208;2022-07-09T04:34:08;1.65;;;1.48;;
21705;SDS011;11014;53.076;18.208;2022-07-09T04:36:36;1.63;;;1.52;;
21705;SDS011;11014;53.076;18.208;2022-07-09T04:39:05;1.65;;;1.55;;
21705;SDS011;11014;53.076;18.208;2022-07-09T04:41:33;2.97;;;1.88;;
21705;SDS011;11014;53.076;18.208;2022-07-09T04:44:02;1.77;;;1.67;;
21705;SDS011;11014;53.076;18.208;2022-07-09T04:46:31;2.00;;;1.80;;
21705;SDS011;11014;53.076;18.208;2022-07-09T04:49:00;2.97;;;1.90;;
21705;SDS011;11014;53.076;18.208;2022-07-09T04:51:28;1.55;;;1.45;;
21705;SDS011;11014;53.076;18.208;2022-07-09T04:53:57;1.85;;;1.75;;
21705;SDS011;11014;53.076;18.208;2022-07-09T04:56:25;1.65;;;1.55;;
21705;SDS011;11014;53.076;18.208;2022-07-09T04:58:53;2.10;;;1.70;;
21705;SDS011;11014;53.076;18.208;2022-07-09T05:01:22;2.95;;;1.85;;
21705;SDS011;11014;53.076;18.208;2022-07-09T05:03:51;2.17;;;1.98;;
21705;SDS011;11014;53.076;18.208;2022-07-09T05:06:20;1.83;;;1.58;;
21705;SDS011;11014;53.076;18.208;2022-07-09T05:08:48;1.80;;;1.70;;
21705;SDS011;11014;53.076;18.208;2022-07-09T05:11:16;2.65;;;1.98;;
21705;SDS011;11014;53.076;18.208;2022-07-09T05:13:45;2.20;;;1.77;;
21705;SDS011;11014;53.076;18.208;2022-07-09T05:16:16;2.22;;;1.90;;
21705;SDS011;11014;53.076;18.208;2022-07-09T05:18:44;2.13;;;1.60;;
21705;SDS011;11014;53.076;18.208;2022-07-09T05:21:13;1.73;;;1.63;;
21705;SDS011;11014;53.076;18.208;2022-07-09T05:23:41;2.63;;;1.88;;
21705;SDS011;11014;53.076;18.208;2022-07-09T05:26:09;1.90;;;1.80;;
21705;SDS011;11014;53.076;18.208;2022-07-09T05:28:38;1.55;;;1.45;;
21705;SDS011;11014;53.076;18.208;2022-07-09T05:31:06;2.53;;;1.63;;
21705;SDS011;11014;53.076;18.208;2022-07-09T05:33:55;2.47;;;1.80;;
21705;SDS011;11014;53.076;18.208;2022-07-09T05:36:23;2.45;;;2.10;;
21705;SDS011;11014;53.076;18.208;2022-07-09T05:38:51;2.22;;;1.70;;
21705;SDS011;11014;53.076;18.208;2022-07-09T05:41:20;2.53;;;1.60;;
21705;SDS011;11014;53.076;18.208;2022-07-09T05:43:50;2.42;;;1.90;;
21705;SDS011;11014;53.076;18.208;2022-07-09T05:46:19;2.40;;;1.67;;
21705;SDS011;11014;53.076;18.208;2022-07-09T05:48:49;2.25;;;1.90;;
21705;SDS011;11014;53.076;18.208;2022-07-09T05:51:17;2.03;;;1.80;;
21705;SDS011;11014;53.076;18.208;2022-07-09T05:53:46;2.53;;;1.90;;
21705;SDS011;11014;53.076;18.208;2022-07-09T05:56:14;4.50;;;2.13;;
21705;SDS011;11014;53.076;18.208;2022-07-09T05:58:42;1.98;;;1.80;;
21705;SDS011;11014;53.076;18.208;2022-07-09T06:01:11;2.50;;;1.90;;
21705;SDS011;11014;53.076;18.208;2022-07-09T06:03:41;2.30;;;1.90;;
21705;SDS011;11014;53.076;18.208;2022-07-09T06:06:11;3.42;;;1.90;;
21705;SDS011;11014;53.076;18.208;2022-07-09T06:08:39;2.00;;;1.80;;
21705;SDS011;11014;53.076;18.208;2022-07-09T06:11:07;1.98;;;1.77;;
21705;SDS011;11014;53.076;18.208;2022-07-09T06:13:36;3.17;;;2.03;;
21705;SDS011;11014;53.076;18.208;2022-07-09T06:16:04;2.55;;;2.10;;
21705;SDS011;11014;53.076;18.208;2022-07-09T06:18:33;3.13;;;2.35;;
21705;SDS011;11014;53.076;18.208;2022-07-09T06:21:02;3.65;;;2.10;;
21705;SDS011;11014;53.076;18.208;2022-07-09T06:23:31;2.47;;;2.20;;
21705;SDS011;11014;53.076;18.208;2022-07-09T06:25:59;1.95;;;1.75;;
21705;SDS011;11014;53.076;18.208;2022-07-09T06:28:28;2.08;;;1.88;;
21705;SDS011;11014;53.076;18.208;2022-07-09T06:30:56;2.90;;;2.42;;
21705;SDS011;11014;53.076;18.208;2022-07-09T06:33:25;2.10;;;1.90;;
21705;SDS011;11014;53.076;18.208;2022-07-09T06:35:53;2.88;;;1.88;;
21705;SDS011;11014;53.076;18.208;2022-07-09T06:38:22;2.40;;;1.90;;
21705;SDS011;11014;53.076;18.208;2022-07-09T06:40:53;2.47;;;2.00;;
21705;SDS011;11014;53.076;18.208;2022-07-09T06:45:53;6.77;;;2.30;;
21705;SDS011;11014;53.076;18.208;2022-07-09T06:48:22;2.08;;;1.83;;
21705;SDS011;11014;53.076;18.208;2022-07-09T06:50:50;2.47;;;2.28;;
21705;SDS011;11014;53.076;18.208;2022-07-09T06:53:18;4.00;;;2.25;;
21705;SDS011;11014;53.076;18.208;2022-07-09T06:55:47;3.92;;;2.20;;
21705;SDS011;11014;53.076;18.208;2022-07-09T06:58:24;2.08;;;1.92;;
21705;SDS011;11014;53.076;18.208;2022-07-09T07:00:53;3.53;;;2.17;;
21705;SDS011;11014;53.076;18.208;2022-07-09T07:03:21;3.92;;;2.30;;
21705;SDS011;11014;53.076;18.208;2022-07-09T07:05:50;2.25;;;2.00;;
21705;SDS011;11014;53.076;18.208;2022-07-09T07:08:18;3.40;;;2.40;;
21705;SDS011;11014;53.076;18.208;2022-07-09T07:10:46;3.13;;;2.42;;
21705;SDS011;11014;53.076;18.208;2022-07-09T07:13:15;2.90;;;2.60;;
21705;SDS011;11014;53.076;18.208;2022-07-09T07:15:43;2.88;;;2.22;;
21705;SDS011;11014;53.076;18.208;2022-07-09T07:18:12;2.22;;;2.03;;
21705;SDS011;11014;53.076;18.208;2022-07-09T07:20:41;2.22;;;2.03;;
21705;SDS011;11014;53.076;18.208;2022-07-09T07:23:11;2.70;;;1.92;;
21705;SDS011;11014;53.076;18.208;2022-07-09T07:25:53;4.63;;;2.20;;
21705;SDS011;11014;53.076;18.208;2022-07-09T07:28:21;3.83;;;2.08;;
21705;SDS011;11014;53.076;18.208;2022-07-09T07:30:49;2.45;;;1.98;;
21705;SDS011;11014;53.076;18.208;2022-07-09T07:33:18;2.30;;;2.10;;
21705;SDS011;11014;53.076;18.208;2022-07-09T07:35:47;2.42;;;2.22;;
21705;SDS011;11014;53.076;18.208;2022-07-09T07:38:15;2.50;;;2.25;;
21705;SDS011;11014;53.076;18.208;2022-07-09T07:40:44;2.30;;;2.10;;
21705;SDS011;11014;53.076;18.208;2022-07-09T07:43:12;3.38;;;2.28;;
21705;SDS011;11014;53.076;18.208;2022-07-09T07:45:41;2.50;;;2.30;;
21705;SDS011;11014;53.076;18.208;2022-07-09T07:48:10;2.20;;;2.00;;
21705;SDS011;11014;53.076;18.208;2022-07-09T07:50:38;3.60;;;2.03;;
21705;SDS011;11014;53.076;18.208;2022-07-09T07:53:07;2.20;;;2.00;;
21705;SDS011;11014;53.076;18.208;2022-07-09T07:55:35;2.30;;;2.10;;
21705;SDS011;11014;53.076;18.208;2022-07-09T07:58:04;2.90;;;2.05;;
21705;SDS011;11014;53.076;18.208;2022-07-09T08:00:32;2.30;;;2.10;;
21705;SDS011;11014;53.076;18.208;2022-07-09T08:03:01;2.20;;;2.00;;
21705;SDS011;11014;53.076;18.208;2022-07-09T08:05:29;4.07;;;2.40;;
21705;SDS011;11014;53.076;18.208;2022-07-09T08:07:58;2.42;;;2.00;;
21705;SDS011;11014;53.076;18.208;2022-07-09T08:10:26;3.20;;;2.05;;
21705;SDS011;11014;53.076;18.208;2022-07-09T08:13:02;3.28;;;2.30;;
21705;SDS011;11014;53.076;18.208;2022-07-09T08:15:30;2.20;;;2.03;;
21705;SDS011;11014;53.076;18.208;2022-07-09T08:17:58;8.63;;;2.22;;
21705;SDS011;11014;53.076;18.208;2022-07-09T08:20:27;3.03;;;2.40;;
21705;SDS011;11014;53.076;18.208;2022-07-09T08:22:56;2.60;;;2.08;;
21705;SDS011;11014;53.076;18.208;2022-07-09T08:25:25;2.80;;;2.13;;
21705;SDS011;11014;53.076;18.208;2022-07-09T08:27:53;3.40;;;2.40;;
21705;SDS011;11014;53.076;18.208;2022-07-09T08:30:22;2.92;;;2.15;;
21705;SDS011;11014;53.076;18.208;2022-07-09T08:32:50;2.08;;;1.88;;
21705;SDS011;11014;53.076;18.208;2022-07-09T08:35:18;2.55;;;2.20;;
21705;SDS011;11014;53.076;18.208;2022-07-09T08:37:47;4.40;;;2.40;;
21705;SDS011;11014;53.076;18.208;2022-07-09T08:40:16;2.85;;;2.10;;
21705;SDS011;11014;53.076;18.208;2022-07-09T08:42:44;2.28;;;2.00;;
21705;SDS011;11014;53.076;18.208;2022-07-09T08:45:13;2.50;;;2.22;;
21705;SDS011;11014;53.076;18.208;2022-07-09T08:47:44;2.35;;;2.00;;
21705;SDS011;11014;53.076;18.208;2022-07-09T08:50:32;2.70;;;2.05;;
21705;SDS011;11014;53.076;18.208;2022-07-09T08:53:01;2.63;;;1.98;;
21705;SDS011;11014;53.076;18.208;2022-07-09T08:55:31;2.40;;;2.00;;
21705;SDS011;11014;53.076;18.208;2022-07-09T08:58:01;2.80;;;2.50;;
21705;SDS011;11014;53.076;18.208;2022-07-09T09:00:29;2.92;;;2.10;;
21705;SDS011;11014;53.076;18.208;2022-07-09T09:03:00;2.80;;;2.40;;
21705;SDS011;11014;53.076;18.208;2022-07-09T09:05:28;2.50;;;2.15;;
21705;SDS011;11014;53.076;18.208;2022-07-09T09:07:57;4.22;;;2.55;;
21705;SDS011;11014;53.076;18.208;2022-07-09T09:10:26;3.78;;;2.10;;
21705;SDS011;11014;53.076;18.208;2022-07-09T09:12:56;2.38;;;2.10;;
21705;SDS011;11014;53.076;18.208;2022-07-09T09:15:29;2.85;;;2.20;;
21705;SDS011;11014;53.076;18.208;2022-07-09T09:17:58;3.22;;;2.00;;
21705;SDS011;11014;53.076;18.208;2022-07-09T09:20:26;2.67;;;2.00;;
21705;SDS011;11014;53.076;18.208;2022-07-09T09:22:54;3.38;;;2.35;;
21705;SDS011;11014;53.076;18.208;2022-07-09T09:25:28;2.30;;;2.10;;
21705;SDS011;11014;53.076;18.208;2022-07-09T09:28:04;2.42;;;2.22;;
21705;SDS011;11014;53.076;18.208;2022-07-09T09:30:40;2.47;;;1.95;;
21705;SDS011;11014;53.076;18.208;2022-07-09T09:33:13;2.47;;;2.22;;
21705;SDS011;11014;53.076;18.208;2022-07-09T09:35:43;2.95;;;2.20;;
21705;SDS011;11014;53.076;18.208;2022-07-09T09:38:12;2.75;;;2.10;;
21705;SDS011;11014;53.076;18.208;2022-07-09T09:40:44;2.33;;;1.90;;
21705;SDS011;11014;53.076;18.208;2022-07-09T09:43:14;4.05;;;2.20;;
21705;SDS011;11014;53.076;18.208;2022-07-09T09:45:47;2.92;;;1.80;;
21705;SDS011;11014;53.076;18.208;2022-07-09T09:48:17;3.08;;;2.30;;
21705;SDS011;11014;53.076;18.208;2022-07-09T09:50:47;2.42;;;2.22;;
21705;SDS011;11014;53.076;18.208;2022-07-09T09:53:16;2.35;;;1.88;;
21705;SDS011;11014;53.076;18.208;2022-07-09T09:55:45;2.00;;;1.80;;
21705;SDS011;11014;53.076;18.208;2022-07-09T09:58:14;2.05;;;1.95;;
21705;SDS011;11014;53.076;18.208;2022-07-09T10:00:42;2.20;;;2.00;;
21705;SDS011;11014;53.076;18.208;2022-07-09T10:03:11;2.50;;;2.00;;
21705;SDS011;11014;53.076;18.208;2022-07-09T10:05:40;2.85;;;2.10;;
21705;SDS011;11014;53.076;18.208;2022-07-09T10:08:09;4.40;;;2.13;;
21705;SDS011;11014;53.076;18.208;2022-07-09T10:10:38;2.53;;;2.33;;
21705;SDS011;11014;53.076;18.208;2022-07-09T10:13:19;4.53;;;2.38;;
21705;SDS011;11014;53.076;18.208;2022-07-09T10:15:50;4.97;;;2.40;;
21705;SDS011;11014;53.076;18.208;2022-07-09T10:18:19;5.25;;;2.30;;
21705;SDS011;11014;53.076;18.208;2022-07-09T10:20:47;8.93;;;2.50;;
21705;SDS011;11014;53.076;18.208;2022-07-09T10:23:23;5.15;;;2.50;;
21705;SDS011;11014;53.076;18.208;2022-07-09T10:25:52;6.47;;;2.35;;
21705;SDS011;11014;53.076;18.208;2022-07-09T10:28:24;14.38;;;3.05;;
21705;SDS011;11014;53.076;18.208;2022-07-09T10:30:55;5.63;;;2.25;;
21705;SDS011;11014;53.076;18.208;2022-07-09T10:33:35;2.95;;;2.05;;
21705;SDS011;11014;53.076;18.208;2022-07-09T10:36:13;2.72;;;1.70;;
21705;SDS011;11014;53.076;18.208;2022-07-09T10:38:51;7.68;;;2.20;;
21705;SDS011;11014;53.076;18.208;2022-07-09T10:41:23;3.90;;;1.70;;
21705;SDS011;11014;53.076;18.208;2022-07-09T10:43:52;6.32;;;1.83;;
21705;SDS011;11014;53.076;18.208;2022-07-09T10:46:20;5.60;;;2.22;;
21705;SDS011;11014;53.076;18.208;2022-07-09T10:48:49;7.53;;;1.98;;
21705;SDS011;11014;53.076;18.208;2022-07-09T10:51:21;6.60;;;2.00;;
21705;SDS011;11014;53.076;18.208;2022-07-09T10:53:50;4.32;;;1.83;;
21705;SDS011;11014;53.076;18.208;2022-07-09T10:56:20;5.47;;;1.95;;
21705;SDS011;11014;53.076;18.208;2022-07-09T10:58:49;7.03;;;2.17;;
21705;SDS011;11014;53.076;18.208;2022-07-09T11:01:19;5.60;;;2.00;;
21705;SDS011;11014;53.076;18.208;2022-07-09T11:03:50;8.10;;;2.00;;
21705;SDS011;11014;53.076;18.208;2022-07-09T11:06:19;5.43;;;2.08;;
21705;SDS011;11014;53.076;18.208;2022-07-09T11:08:47;6.15;;;2.05;;
21705;SDS011;11014;53.076;18.208;2022-07-09T11:11:22;8.00;;;2.03;;
21705;SDS011;11014;53.076;18.208;2022-07-09T11:13:51;6.30;;;2.10;;
21705;SDS011;11014;53.076;18.208;2022-07-09T11:16:23;6.50;;;2.10;;
21705;SDS011;11014;53.076;18.208;2022-07-09T11:18:52;4.93;;;2.17;;
21705;SDS011;11014;53.076;18.208;2022-07-09T11:21:22;6.35;;;2.10;;
21705;SDS011;11014;53.076;18.208;2022-07-09T11:23:53;8.27;;;2.50;;
21705;SDS011;11014;53.076;18.208;2022-07-09T11:26:21;7.05;;;2.08;;
21705;SDS011;11014;53.076;18.208;2022-07-09T11:28:50;3.33;;;1.83;;
21705;SDS011;11014;53.076;18.208;2022-07-09T11:31:22;6.53;;;2.97;;
21705;SDS011;11014;53.076;18.208;2022-07-09T11:33:50;6.65;;;2.20;;
21705;SDS011;11014;53.076;18.208;2022-07-09T11:36:38;7.47;;;2.05;;
21705;SDS011;11014;53.076;18.208;2022-07-09T11:39:07;4.88;;;2.15;;
21705;SDS011;11014;53.076;18.208;2022-07-09T11:41:42;5.70;;;2.28;;
21705;SDS011;11014;53.076;18.208;2022-07-09T11:44:18;4.43;;;1.92;;
21705;SDS011;11014;53.076;18.208;2022-07-09T11:47:04;5.15;;;2.10;;
21705;SDS011;11014;53.076;18.208;2022-07-09T11:49:34;4.50;;;2.17;;
21705;SDS011;11014;53.076;18.208;2022-07-09T11:52:16;4.40;;;2.00;;
21705;SDS011;11014;53.076;18.208;2022-07-09T11:59:57;6.93;;;1.90;;
21705;SDS011;11014;53.076;18.208;2022-07-09T12:02:28;4.90;;;2.10;;
21705;SDS011;11014;53.076;18.208;2022-07-09T12:05:08;3.42;;;1.85;;
21705;SDS011;11014;53.076;18.208;2022-07-09T12:07:39;5.35;;;2.20;;
21705;SDS011;11014;53.076;18.208;2022-07-09T12:10:24;3.30;;;1.95;;
21705;SDS011;11014;53.076;18.208;2022-07-09T12:12:55;5.53;;;2.25;;
21705;SDS011;11014;53.076;18.208;2022-07-09T12:15:24;9.70;;;2.47;;
21705;SDS011;11014;53.076;18.208;2022-07-09T12:17:53;6.22;;;2.20;;
21705;SDS011;11014;53.076;18.208;2022-07-09T12:20:27;6.70;;;2.30;;
21705;SDS011;11014;53.076;18.208;2022-07-09T12:22:57;6.05;;;2.40;;
21705;SDS011;11014;53.076;18.208;2022-07-09T12:25:26;4.65;;;2.05;;
21705;SDS011;11014;53.076;18.208;2022-07-09T12:27:54;5.45;;;2.60;;
21705;SDS011;11014;53.076;18.208;2022-07-09T12:30:23;6.47;;;2.70;;
21705;SDS011;11014;53.076;18.208;2022-07-09T12:32:52;6.50;;;2.50;;
21705;SDS011;11014;53.076;18.208;2022-07-09T12:35:21;7.15;;;2.60;;
21705;SDS011;11014;53.076;18.208;2022-07-09T12:37:50;4.80;;;2.67;;
21705;SDS011;11014;53.076;18.208;2022-07-09T12:40:18;5.43;;;2.45;;
21705;SDS011;11014;53.076;18.208;2022-07-09T12:42:47;5.47;;;2.60;;
21705;SDS011;11014;53.076;18.208;2022-07-09T12:45:15;5.00;;;2.10;;
21705;SDS011;11014;53.076;18.208;2022-07-09T12:47:44;8.82;;;2.42;;
21705;SDS011;11014;53.076;18.208;2022-07-09T12:50:12;4.88;;;2.55;;
21705;SDS011;11014;53.076;18.208;2022-07-09T12:52:41;6.72;;;2.15;;
21705;SDS011;11014;53.076;18.208;2022-07-09T12:55:09;6.88;;;2.60;;
21705;SDS011;11014;53.076;18.208;2022-07-09T12:57:38;7.70;;;2.22;;
21705;SDS011;11014;53.076;18.208;2022-07-09T13:00:07;6.43;;;2.22;;
21705;SDS011;11014;53.076;18.208;2022-07-09T13:02:36;6.20;;;2.47;;
21705;SDS011;11014;53.076;18.208;2022-07-09T13:05:04;4.15;;;2.00;;
21705;SDS011;11014;53.076;18.208;2022-07-09T13:07:33;6.72;;;2.22;;
21705;SDS011;11014;53.076;18.208;2022-07-09T13:10:02;3.17;;;2.10;;
21705;SDS011;11014;53.076;18.208;2022-07-09T13:12:30;4.68;;;2.33;;
21705;SDS011;11014;53.076;18.208;2022-07-09T13:15:01;4.40;;;2.22;;
21705;SDS011;11014;53.076;18.208;2022-07-09T13:17:29;5.03;;;2.10;;
21705;SDS011;11014;53.076;18.208;2022-07-09T13:20:00;3.50;;;2.22;;
21705;SDS011;11014;53.076;18.208;2022-07-09T13:22:28;4.07;;;2.40;;
21705;SDS011;11014;53.076;18.208;2022-07-09T13:24:57;4.78;;;2.22;;
21705;SDS011;11014;53.076;18.208;2022-07-09T13:27:25;6.88;;;2.92;;
21705;SDS011;11014;53.076;18.208;2022-07-09T13:29:54;5.53;;;2.45;;
21705;SDS011;11014;53.076;18.208;2022-07-09T13:32:24;5.78;;;2.60;;
21705;SDS011;11014;53.076;18.208;2022-07-09T13:34:52;4.30;;;2.38;;
21705;SDS011;11014;53.076;18.208;2022-07-09T13:37:20;3.53;;;2.83;;
21705;SDS011;11014;53.076;18.208;2022-07-09T13:39:49;4.63;;;2.53;;
21705;SDS011;11014;53.076;18.208;2022-07-09T13:42:17;5.25;;;2.78;;
21705;SDS011;11014;53.076;18.208;2022-07-09T13:44:46;4.50;;;2.30;;
21705;SDS011;11014;53.076;18.208;2022-07-09T13:47:14;4.88;;;2.50;;
21705;SDS011;11014;53.076;18.208;2022-07-09T13:49:42;4.35;;;2.35;;
21705;SDS011;11014;53.076;18.208;2022-07-09T13:52:11;5.97;;;2.47;;
21705;SDS011;11014;53.076;18.208;2022-07-09T13:54:39;8.75;;;2.75;;
21705;SDS011;11014;53.076;18.208;2022-07-09T13:57:07;7.32;;;2.20;;
21705;SDS011;11014;53.076;18.208;2022-07-09T13:59:36;7.03;;;2.50;;
21705;SDS011;11014;53.076;18.208;2022-07-09T14:02:04;4.43;;;2.50;;
21705;SDS011;11014;53.076;18.208;2022-07-09T14:04:33;8.75;;;3.10;;
21705;SDS011;11014;53.076;18.208;2022-07-09T14:07:01;4.72;;;2.70;;
21705;SDS011;11014;53.076;18.208;2022-07-09T14:09:30;8.00;;;2.83;;
21705;SDS011;11014;53.076;18.208;2022-07-09T14:11:58;6.13;;;2.72;;
21705;SDS011;11014;53.076;18.208;2022-07-09T14:14:27;3.40;;;2.50;;
21705;SDS011;11014;53.076;18.208;2022-07-09T14:16:55;4.25;;;2.55;;
21705;SDS011;11014;53.076;18.208;2022-07-09T14:19:24;6.28;;;2.45;;
21705;SDS011;11014;53.076;18.208;2022-07-09T14:21:52;5.75;;;2.55;;
21705;SDS011;11014;53.076;18.208;2022-07-09T14:24:21;5.68;;;2.70;;
21705;SDS011;11014;53.076;18.208;2022-07-09T14:26:49;4.53;;;2.70;;
21705;SDS011;11014;53.076;18.208;2022-07-09T14:29:17;6.47;;;2.60;;
21705;SDS011;11014;53.076;18.208;2022-07-09T14:31:51;6.47;;;2.53;;
21705;SDS011;11014;53.076;18.208;2022-07-09T14:34:20;5.72;;;2.85;;
21705;SDS011;11014;53.076;18.208;2022-07-09T14:36:49;3.35;;;2.33;;
21705;SDS011;11014;53.076;18.208;2022-07-09T14:39:18;9.90;;;3.10;;
21705;SDS011;11014;53.076;18.208;2022-07-09T14:41:48;4.20;;;2.50;;
21705;SDS011;11014;53.076;18.208;2022-07-09T14:44:16;5.10;;;2.72;;
21705;SDS011;11014;53.076;18.208;2022-07-09T14:46:44;6.90;;;2.70;;
21705;SDS011;11014;53.076;18.208;2022-07-09T14:49:13;5.32;;;2.60;;
21705;SDS011;11014;53.076;18.208;2022-07-09T14:51:42;6.57;;;2.70;;
21705;SDS011;11014;53.076;18.208;2022-07-09T14:54:10;5.57;;;2.97;;
21705;SDS011;11014;53.076;18.208;2022-07-09T14:56:38;3.13;;;2.50;;